sensor_id;sensor_type;location;lat;lon;timestamp;P1;durP1;ratioP1;P2;durP2;ratioP2
64682;SDS011;51107;47.652;19.016;2022-10-19T00:01:17;7.70;;;3.08;;
64682;SDS011;51107;47.652;19.016;2022-10-19T00:03:51;4.28;;;2.58;;
64682;SDS011;51107;47.652;19.016;2022-10-19T00:06:22;7.07;;;2.62;;
64682;SDS011;51107;47.652;19.016;2022-10-19T00:08:57;5.20;;;2.75;;
64682;SDS011;51107;47.652;19.016;2022-10-19T00:11:26;3.40;;;2.47;;
64682;SDS011;51107;47.652;19.016;2022-10-19T00:13:56;4.87;;;2.67;;
64682;SDS011;51107;47.652;19.016;2022-10-19T00:16:26;3.55;;;2.20;;
64682;SDS011;51107;47.652;19.016;2022-10-19T00:18:57;5.97;;;2.87;;
64682;SDS011;51107;47.652;19.016;2022-10-19T00:21:27;6.22;;;2.78;;
64682;SDS011;51107;47.652;19.016;2022-10-19T00:23:55;3.92;;;2.15;;
64682;SDS011;51107;47.652;19.016;2022-10-19T00:26:24;2.97;;;2.10;;
64682;SDS011;51107;47.652;19.016;2022-10-19T00:28:53;9.85;;;3.55;;
64682;SDS011;51107;47.652;19.016;2022-10-19T00:31:22;7.07;;;3.33;;
64682;SDS011;51107;47.652;19.016;2022-10-19T00:33:52;5.43;;;2.80;;
64682;SDS011;51107;47.652;19.016;2022-10-19T00:36:24;4.82;;;2.37;;
64682;SDS011;51107;47.652;19.016;2022-10-19T00:38:54;6.25;;;2.78;;
64682;SDS011;51107;47.652;19.016;2022-10-19T00:41:23;3.25;;;2.37;;
64682;SDS011;51107;47.652;19.016;2022-10-19T00:43:54;5.35;;;3.08;;
64682;SDS011;51107;47.652;19.016;2022-10-19T00:46:40;5.25;;;2.53;;
64682;SDS011;51107;47.652;19.016;2022-10-19T00:49:20;3.72;;;2.08;;
64682;SDS011;51107;47.652;19.016;2022-10-19T00:51:52;3.20;;;2.28;;
64682;SDS011;51107;47.652;19.016;2022-10-19T00:54:28;3.05;;;2.28;;
64682;SDS011;51107;47.652;19.016;2022-10-19T00:57:02;2.80;;;2.50;;
64682;SDS011;51107;47.652;19.016;2022-10-19T00:59:30;4.35;;;2.58;;
64682;SDS011;51107;47.652;19.016;2022-10-19T01:02:00;6.12;;;2.40;;
64682;SDS011;51107;47.652;19.016;2022-10-19T01:04:31;4.72;;;2.58;;
64682;SDS011;51107;47.652;19.016;2022-10-19T01:07:02;4.20;;;2.37;;
64682;SDS011;51107;47.652;19.016;2022-10-19T01:09:33;8.82;;;2.65;;
64682;SDS011;51107;47.652;19.016;2022-10-19T01:15:16;3.00;;;1.90;;
64682;SDS011;51107;47.652;19.016;2022-10-19T01:18:32;3.58;;;1.95;;
64682;SDS011;51107;47.652;19.016;2022-10-19T01:32:50;3.08;;;1.80;;
64682;SDS011;51107;47.652;19.016;2022-10-19T01:35:30;4.80;;;2.28;;
64682;SDS011;51107;47.652;19.016;2022-10-19T01:44:33;2.60;;;2.03;;
64682;SDS011;51107;47.652;19.016;2022-10-19T01:47:40;2.85;;;2.00;;
64682;SDS011;51107;47.652;19.016;2022-10-19T01:52:51;3.03;;;2.15;;
64682;SDS011;51107;47.652;19.016;2022-10-19T01:55:22;4.50;;;2.72;;
64682;SDS011;51107;47.652;19.016;2022-10-19T01:57:54;4.05;;;1.60;;
64682;SDS011;51107;47.652;19.016;2022-10-19T02:00:27;8.20;;;2.67;;
64682;SDS011;51107;47.652;19.016;2022-10-19T02:02:58;2.33;;;1.67;;
64682;SDS011;51107;47.652;19.016;2022-10-19T02:05:29;6.10;;;2.67;;
64682;SDS011;51107;47.652;19.016;2022-10-19T02:08:03;2.72;;;2.08;;
64682;SDS011;51107;47.652;19.016;2022-10-19T02:10:38;3.12;;;2.05;;
64682;SDS011;51107;47.652;19.016;2022-10-19T02:13:09;4.82;;;1.95;;
64682;SDS011;51107;47.652;19.016;2022-10-19T02:15:42;4.07;;;2.47;;
64682;SDS011;51107;47.652;19.016;2022-10-19T02:18:14;9.30;;;2.33;;
64682;SDS011;51107;47.652;19.016;2022-10-19T02:23:16;3.25;;;2.08;;
64682;SDS011;51107;47.652;19.016;2022-10-19T02:25:48;7.10;;;2.00;;
64682;SDS011;51107;47.652;19.016;2022-10-19T02:28:16;6.43;;;2.70;;
64682;SDS011;51107;47.652;19.016;2022-10-19T02:30:45;4.05;;;2.30;;
64682;SDS011;51107;47.652;19.016;2022-10-19T02:33:14;6.07;;;2.72;;
64682;SDS011;51107;47.652;19.016;2022-10-19T02:35:43;5.05;;;2.42;;
64682;SDS011;51107;47.652;19.016;2022-10-19T02:38:12;4.45;;;3.12;;
64682;SDS011;51107;47.652;19.016;2022-10-19T02:40:45;5.43;;;2.90;;
64682;SDS011;51107;47.652;19.016;2022-10-19T02:43:18;4.05;;;2.62;;
64682;SDS011;51107;47.652;19.016;2022-10-19T02:45:52;3.60;;;2.58;;
64682;SDS011;51107;47.652;19.016;2022-10-19T02:48:27;10.80;;;3.28;;
64682;SDS011;51107;47.652;19.016;2022-10-19T02:50:58;3.17;;;2.45;;
64682;SDS011;51107;47.652;19.016;2022-10-19T02:53:27;3.85;;;2.42;;
64682;SDS011;51107;47.652;19.016;2022-10-19T02:55:55;2.87;;;2.28;;
64682;SDS011;51107;47.652;19.016;2022-10-19T02:58:24;5.80;;;3.10;;
64682;SDS011;51107;47.652;19.016;2022-10-19T03:00:52;4.82;;;2.60;;
64682;SDS011;51107;47.652;19.016;2022-10-19T03:03:21;4.50;;;2.33;;
64682;SDS011;51107;47.652;19.016;2022-10-19T03:05:49;3.83;;;2.70;;
64682;SDS011;51107;47.652;19.016;2022-10-19T03:08:18;3.83;;;2.70;;
64682;SDS011;51107;47.652;19.016;2022-10-19T03:10:47;3.87;;;2.42;;
64682;SDS011;51107;47.652;19.016;2022-10-19T03:13:15;5.65;;;3.00;;
64682;SDS011;51107;47.652;19.016;2022-10-19T03:15:46;4.97;;;3.03;;
64682;SDS011;51107;47.652;19.016;2022-10-19T03:18:15;5.35;;;2.90;;
64682;SDS011;51107;47.652;19.016;2022-10-19T03:20:43;5.03;;;2.67;;
64682;SDS011;51107;47.652;19.016;2022-10-19T03:23:11;5.05;;;3.17;;
64682;SDS011;51107;47.652;19.016;2022-10-19T03:25:40;4.78;;;3.10;;
64682;SDS011;51107;47.652;19.016;2022-10-19T03:28:08;3.85;;;2.35;;
64682;SDS011;51107;47.652;19.016;2022-10-19T03:30:36;4.78;;;2.92;;
64682;SDS011;51107;47.652;19.016;2022-10-19T03:33:04;9.63;;;3.00;;
64682;SDS011;51107;47.652;19.016;2022-10-19T03:35:32;3.47;;;2.62;;
64682;SDS011;51107;47.652;19.016;2022-10-19T03:38:01;4.55;;;3.35;;
64682;SDS011;51107;47.652;19.016;2022-10-19T03:40:29;7.70;;;3.45;;
64682;SDS011;51107;47.652;19.016;2022-10-19T03:42:57;4.18;;;2.50;;
64682;SDS011;51107;47.652;19.016;2022-10-19T03:45:25;4.75;;;3.17;;
64682;SDS011;51107;47.652;19.016;2022-10-19T03:47:54;5.03;;;3.45;;
64682;SDS011;51107;47.652;19.016;2022-10-19T03:50:23;4.97;;;3.35;;
64682;SDS011;51107;47.652;19.016;2022-10-19T03:52:51;12.15;;;3.45;;
64682;SDS011;51107;47.652;19.016;2022-10-19T03:55:21;4.75;;;2.45;;
64682;SDS011;51107;47.652;19.016;2022-10-19T03:57:50;5.75;;;2.53;;
64682;SDS011;51107;47.652;19.016;2022-10-19T04:00:18;3.60;;;2.62;;
64682;SDS011;51107;47.652;19.016;2022-10-19T04:02:47;4.97;;;3.15;;
64682;SDS011;51107;47.652;19.016;2022-10-19T04:05:15;6.75;;;4.15;;
64682;SDS011;51107;47.652;19.016;2022-10-19T04:07:43;6.93;;;2.67;;
64682;SDS011;51107;47.652;19.016;2022-10-19T04:10:15;3.60;;;2.78;;
64682;SDS011;51107;47.652;19.016;2022-10-19T04:12:44;5.85;;;3.35;;
64682;SDS011;51107;47.652;19.016;2022-10-19T04:15:15;3.10;;;2.40;;
64682;SDS011;51107;47.652;19.016;2022-10-19T04:17:43;5.62;;;2.62;;
64682;SDS011;51107;47.652;19.016;2022-10-19T04:20:19;4.70;;;2.72;;
64682;SDS011;51107;47.652;19.016;2022-10-19T04:22:47;4.70;;;2.97;;
64682;SDS011;51107;47.652;19.016;2022-10-19T04:25:16;6.60;;;2.20;;
64682;SDS011;51107;47.652;19.016;2022-10-19T04:27:44;5.25;;;3.28;;
64682;SDS011;51107;47.652;19.016;2022-10-19T04:30:12;4.43;;;3.05;;
64682;SDS011;51107;47.652;19.016;2022-10-19T04:32:41;5.18;;;3.53;;
64682;SDS011;51107;47.652;19.016;2022-10-19T04:35:09;8.60;;;3.80;;
64682;SDS011;51107;47.652;19.016;2022-10-19T04:37:37;10.07;;;3.35;;
64682;SDS011;51107;47.652;19.016;2022-10-19T04:40:06;4.78;;;3.62;;
64682;SDS011;51107;47.652;19.016;2022-10-19T04:42:41;5.32;;;3.42;;
64682;SDS011;51107;47.652;19.016;2022-10-19T04:45:10;8.05;;;3.03;;
64682;SDS011;51107;47.652;19.016;2022-10-19T04:47:38;5.85;;;3.10;;
64682;SDS011;51107;47.652;19.016;2022-10-19T04:50:07;4.50;;;2.40;;
64682;SDS011;51107;47.652;19.016;2022-10-19T04:52:36;3.50;;;2.42;;
64682;SDS011;51107;47.652;19.016;2022-10-19T04:55:06;2.83;;;2.10;;
64682;SDS011;51107;47.652;19.016;2022-10-19T04:57:34;3.60;;;2.37;;
64682;SDS011;51107;47.652;19.016;2022-10-19T05:00:04;4.62;;;2.33;;
64682;SDS011;51107;47.652;19.016;2022-10-19T05:02:32;3.58;;;2.42;;
64682;SDS011;51107;47.652;19.016;2022-10-19T05:05:00;5.28;;;2.75;;
64682;SDS011;51107;47.652;19.016;2022-10-19T05:07:29;5.30;;;2.80;;
64682;SDS011;51107;47.652;19.016;2022-10-19T05:09:59;4.28;;;2.12;;
64682;SDS011;51107;47.652;19.016;2022-10-19T05:12:27;3.20;;;2.17;;
64682;SDS011;51107;47.652;19.016;2022-10-19T05:14:55;3.97;;;2.15;;
64682;SDS011;51107;47.652;19.016;2022-10-19T05:17:23;4.07;;;2.80;;
64682;SDS011;51107;47.652;19.016;2022-10-19T05:19:52;3.30;;;2.30;;
64682;SDS011;51107;47.652;19.016;2022-10-19T05:22:21;8.70;;;2.35;;
64682;SDS011;51107;47.652;19.016;2022-10-19T05:24:49;3.72;;;2.20;;
64682;SDS011;51107;47.652;19.016;2022-10-19T05:27:24;5.05;;;2.35;;
64682;SDS011;51107;47.652;19.016;2022-10-19T05:29:55;5.12;;;3.20;;
64682;SDS011;51107;47.652;19.016;2022-10-19T05:32:24;3.00;;;2.45;;
64682;SDS011;51107;47.652;19.016;2022-10-19T05:34:53;15.38;;;3.58;;
64682;SDS011;51107;47.652;19.016;2022-10-19T05:37:21;6.20;;;2.17;;
64682;SDS011;51107;47.652;19.016;2022-10-19T05:39:53;9.38;;;2.72;;
64682;SDS011;51107;47.652;19.016;2022-10-19T05:42:21;5.82;;;2.92;;
64682;SDS011;51107;47.652;19.016;2022-10-19T05:44:51;3.40;;;2.33;;
64682;SDS011;51107;47.652;19.016;2022-10-19T05:47:19;3.15;;;2.10;;
64682;SDS011;51107;47.652;19.016;2022-10-19T05:49:48;5.40;;;1.90;;
64682;SDS011;51107;47.652;19.016;2022-10-19T05:52:16;3.58;;;2.05;;
64682;SDS011;51107;47.652;19.016;2022-10-19T05:54:45;2.47;;;1.60;;
64682;SDS011;51107;47.652;19.016;2022-10-19T05:57:13;3.30;;;2.35;;
64682;SDS011;51107;47.652;19.016;2022-10-19T05:59:50;4.05;;;2.37;;
64682;SDS011;51107;47.652;19.016;2022-10-19T06:02:19;1.90;;;1.40;;
64682;SDS011;51107;47.652;19.016;2022-10-19T06:04:47;3.55;;;2.17;;
64682;SDS011;51107;47.652;19.016;2022-10-19T06:07:15;4.12;;;2.42;;
64682;SDS011;51107;47.652;19.016;2022-10-19T06:09:44;3.12;;;2.37;;
64682;SDS011;51107;47.652;19.016;2022-10-19T06:12:13;3.37;;;1.52;;
64682;SDS011;51107;47.652;19.016;2022-10-19T06:14:43;4.20;;;1.37;;
64682;SDS011;51107;47.652;19.016;2022-10-19T06:17:16;2.72;;;1.70;;
64682;SDS011;51107;47.652;19.016;2022-10-19T06:19:45;1.98;;;1.15;;
64682;SDS011;51107;47.652;19.016;2022-10-19T06:22:14;1.90;;;1.10;;
64682;SDS011;51107;47.652;19.016;2022-10-19T06:24:42;2.17;;;1.58;;
64682;SDS011;51107;47.652;19.016;2022-10-19T06:27:10;2.40;;;1.65;;
64682;SDS011;51107;47.652;19.016;2022-10-19T06:29:39;2.55;;;1.40;;
64682;SDS011;51107;47.652;19.016;2022-10-19T06:32:07;4.87;;;1.60;;
64682;SDS011;51107;47.652;19.016;2022-10-19T06:34:36;3.00;;;1.87;;
64682;SDS011;51107;47.652;19.016;2022-10-19T06:37:04;1.92;;;1.48;;
64682;SDS011;51107;47.652;19.016;2022-10-19T06:39:33;2.08;;;1.50;;
64682;SDS011;51107;47.652;19.016;2022-10-19T06:42:01;1.67;;;1.23;;
64682;SDS011;51107;47.652;19.016;2022-10-19T06:44:29;1.83;;;1.50;;
64682;SDS011;51107;47.652;19.016;2022-10-19T06:46:57;1.45;;;1.10;;
64682;SDS011;51107;47.652;19.016;2022-10-19T06:49:26;1.70;;;1.17;;
64682;SDS011;51107;47.652;19.016;2022-10-19T06:51:54;1.67;;;1.08;;
64682;SDS011;51107;47.652;19.016;2022-10-19T06:54:23;1.50;;;1.30;;
64682;SDS011;51107;47.652;19.016;2022-10-19T06:56:52;3.22;;;1.60;;
64682;SDS011;51107;47.652;19.016;2022-10-19T06:59:20;1.45;;;1.17;;
64682;SDS011;51107;47.652;19.016;2022-10-19T07:01:49;2.28;;;1.00;;
64682;SDS011;51107;47.652;19.016;2022-10-19T07:04:17;1.05;;;0.85;;
64682;SDS011;51107;47.652;19.016;2022-10-19T07:06:45;1.92;;;1.45;;
64682;SDS011;51107;47.652;19.016;2022-10-19T07:09:14;1.10;;;1.00;;
64682;SDS011;51107;47.652;19.016;2022-10-19T07:11:42;1.87;;;1.00;;
64682;SDS011;51107;47.652;19.016;2022-10-19T07:14:13;1.62;;;1.23;;
64682;SDS011;51107;47.652;19.016;2022-10-19T07:16:41;1.48;;;1.10;;
64682;SDS011;51107;47.652;19.016;2022-10-19T07:19:09;3.42;;;1.20;;
64682;SDS011;51107;47.652;19.016;2022-10-19T07:21:38;3.55;;;0.90;;
64682;SDS011;51107;47.652;19.016;2022-10-19T07:24:08;1.65;;;1.33;;
64682;SDS011;51107;47.652;19.016;2022-10-19T07:26:36;3.12;;;0.95;;
64682;SDS011;51107;47.652;19.016;2022-10-19T07:29:05;1.37;;;1.02;;
64682;SDS011;51107;47.652;19.016;2022-10-19T07:31:33;1.62;;;1.00;;
64682;SDS011;51107;47.652;19.016;2022-10-19T07:34:02;1.27;;;0.95;;
64682;SDS011;51107;47.652;19.016;2022-10-19T07:36:32;1.75;;;1.10;;
64682;SDS011;51107;47.652;19.016;2022-10-19T07:39:03;1.70;;;1.27;;
64682;SDS011;51107;47.652;19.016;2022-10-19T07:41:33;1.70;;;1.05;;
64682;SDS011;51107;47.652;19.016;2022-10-19T07:44:01;1.33;;;0.93;;
64682;SDS011;51107;47.652;19.016;2022-10-19T07:46:30;2.42;;;1.12;;
64682;SDS011;51107;47.652;19.016;2022-10-19T07:49:00;1.12;;;0.85;;
64682;SDS011;51107;47.652;19.016;2022-10-19T07:51:29;3.60;;;1.50;;
64682;SDS011;51107;47.652;19.016;2022-10-19T07:53:58;1.77;;;1.05;;
64682;SDS011;51107;47.652;19.016;2022-10-19T07:56:26;1.23;;;1.08;;
64682;SDS011;51107;47.652;19.016;2022-10-19T07:58:56;1.50;;;1.10;;
64682;SDS011;51107;47.652;19.016;2022-10-19T08:01:29;1.45;;;0.70;;
64682;SDS011;51107;47.652;19.016;2022-10-19T08:03:59;1.02;;;0.90;;
64682;SDS011;51107;47.652;19.016;2022-10-19T08:06:48;2.60;;;0.98;;
64682;SDS011;51107;47.652;19.016;2022-10-19T08:09:17;1.15;;;1.05;;
64682;SDS011;51107;47.652;19.016;2022-10-19T08:12:05;0.90;;;0.70;;
64682;SDS011;51107;47.652;19.016;2022-10-19T08:14:34;1.10;;;1.00;;
64682;SDS011;51107;47.652;19.016;2022-10-19T08:17:02;1.33;;;1.02;;
64682;SDS011;51107;47.652;19.016;2022-10-19T08:19:32;1.20;;;1.02;;
64682;SDS011;51107;47.652;19.016;2022-10-19T08:22:00;1.45;;;0.80;;
64682;SDS011;51107;47.652;19.016;2022-10-19T08:24:29;0.82;;;0.80;;
64682;SDS011;51107;47.652;19.016;2022-10-19T08:26:57;0.75;;;0.75;;
64682;SDS011;51107;47.652;19.016;2022-10-19T08:29:26;2.00;;;1.10;;
64682;SDS011;51107;47.652;19.016;2022-10-19T08:31:58;1.52;;;1.20;;
64682;SDS011;51107;47.652;19.016;2022-10-19T08:34:27;1.08;;;0.90;;
64682;SDS011;51107;47.652;19.016;2022-10-19T08:36:55;2.55;;;0.70;;
64682;SDS011;51107;47.652;19.016;2022-10-19T08:39:23;1.15;;;0.80;;
64682;SDS011;51107;47.652;19.016;2022-10-19T08:41:54;0.85;;;0.80;;
64682;SDS011;51107;47.652;19.016;2022-10-19T08:49:55;1.20;;;1.00;;
64682;SDS011;51107;47.652;19.016;2022-10-19T08:55:02;1.05;;;0.88;;
64682;SDS011;51107;47.652;19.016;2022-10-19T08:57:56;0.95;;;0.70;;
64682;SDS011;51107;47.652;19.016;2022-10-19T09:03:40;0.90;;;0.85;;
64682;SDS011;51107;47.652;19.016;2022-10-19T09:06:33;2.08;;;1.20;;
64682;SDS011;51107;47.652;19.016;2022-10-19T09:09:12;1.77;;;0.95;;
64682;SDS011;51107;47.652;19.016;2022-10-19T09:11:42;1.42;;;0.82;;
64682;SDS011;51107;47.652;19.016;2022-10-19T09:19:20;0.75;;;0.70;;
64682;SDS011;51107;47.652;19.016;2022-10-19T09:21:57;1.12;;;0.70;;
64682;SDS011;51107;47.652;19.016;2022-10-19T09:24:34;0.80;;;0.80;;
64682;SDS011;51107;47.652;19.016;2022-10-19T09:27:04;0.98;;;0.70;;
64682;SDS011;51107;47.652;19.016;2022-10-19T09:29:58;0.75;;;0.70;;
64682;SDS011;51107;47.652;19.016;2022-10-19T09:32:31;0.70;;;0.70;;
64682;SDS011;51107;47.652;19.016;2022-10-19T09:37:41;0.73;;;0.47;;
64682;SDS011;51107;47.652;19.016;2022-10-19T09:40:33;1.50;;;0.83;;
64682;SDS011;51107;47.652;19.016;2022-10-19T09:43:04;4.40;;;1.10;;
64682;SDS011;51107;47.652;19.016;2022-10-19T09:45:48;0.88;;;0.68;;
64682;SDS011;51107;47.652;19.016;2022-10-19T09:48:48;0.70;;;0.70;;
64682;SDS011;51107;47.652;19.016;2022-10-19T09:51:20;2.83;;;0.80;;
64682;SDS011;51107;47.652;19.016;2022-10-19T09:53:51;1.48;;;0.70;;
64682;SDS011;51107;47.652;19.016;2022-10-19T09:56:22;0.70;;;0.60;;
64682;SDS011;51107;47.652;19.016;2022-10-19T09:58:55;1.00;;;0.90;;
64682;SDS011;51107;47.652;19.016;2022-10-19T10:04:13;0.93;;;0.70;;
64682;SDS011;51107;47.652;19.016;2022-10-19T10:06:47;0.85;;;0.70;;
64682;SDS011;51107;47.652;19.016;2022-10-19T10:09:17;0.82;;;0.60;;
64682;SDS011;51107;47.652;19.016;2022-10-19T10:11:49;1.62;;;0.77;;
64682;SDS011;51107;47.652;19.016;2022-10-19T10:14:19;1.40;;;0.60;;
64682;SDS011;51107;47.652;19.016;2022-10-19T10:16:55;1.27;;;0.90;;
64682;SDS011;51107;47.652;19.016;2022-10-19T10:19:51;1.60;;;1.00;;
64682;SDS011;51107;47.652;19.016;2022-10-19T10:22:34;1.17;;;0.73;;
64682;SDS011;51107;47.652;19.016;2022-10-19T10:25:11;5.22;;;0.62;;
64682;SDS011;51107;47.652;19.016;2022-10-19T10:27:52;1.67;;;0.80;;
64682;SDS011;51107;47.652;19.016;2022-10-19T10:30:28;1.12;;;0.88;;
64682;SDS011;51107;47.652;19.016;2022-10-19T10:33:01;0.80;;;0.70;;
64682;SDS011;51107;47.652;19.016;2022-10-19T10:35:53;0.43;;;0.43;;
64682;SDS011;51107;47.652;19.016;2022-10-19T10:38:25;0.57;;;0.57;;
64682;SDS011;51107;47.652;19.016;2022-10-19T10:41:34;0.50;;;0.50;;
64682;SDS011;51107;47.652;19.016;2022-10-19T10:43:59;0.75;;;0.65;;
64682;SDS011;51107;47.652;19.016;2022-10-19T10:46:36;0.80;;;0.80;;
64682;SDS011;51107;47.652;19.016;2022-10-19T10:49:19;1.80;;;0.65;;
64682;SDS011;51107;47.652;19.016;2022-10-19T10:51:53;0.95;;;0.65;;
64682;SDS011;51107;47.652;19.016;2022-10-19T10:56:55;0.47;;;0.47;;
64682;SDS011;51107;47.652;19.016;2022-10-19T11:00:06;0.73;;;0.70;;
64682;SDS011;51107;47.652;19.016;2022-10-19T11:05:23;0.30;;;0.30;;
64682;SDS011;51107;47.652;19.016;2022-10-19T11:08:26;0.80;;;0.40;;
64682;SDS011;51107;47.652;19.016;2022-10-19T11:14:48;6.97;;;0.60;;
64682;SDS011;51107;47.652;19.016;2022-10-19T11:17:13;1.75;;;0.82;;
64682;SDS011;51107;47.652;19.016;2022-10-19T11:19:50;1.00;;;0.60;;
64682;SDS011;51107;47.652;19.016;2022-10-19T11:22:28;1.35;;;0.70;;
64682;SDS011;51107;47.652;19.016;2022-10-19T11:36:48;39.10;;;2.78;;
64682;SDS011;51107;47.652;19.016;2022-10-19T11:39:45;0.32;;;0.32;;
64682;SDS011;51107;47.652;19.016;2022-10-19T11:50:51;0.30;;;0.30;;
64682;SDS011;51107;47.652;19.016;2022-10-19T11:56:48;0.22;;;0.22;;
64682;SDS011;51107;47.652;19.016;2022-10-19T12:05:00;10.30;;;1.05;;
64682;SDS011;51107;47.652;19.016;2022-10-19T12:13:58;0.70;;;0.52;;
64682;SDS011;51107;47.652;19.016;2022-10-19T12:16:37;0.73;;;0.52;;
64682;SDS011;51107;47.652;19.016;2022-10-19T12:19:11;0.30;;;0.30;;
64682;SDS011;51107;47.652;19.016;2022-10-19T12:21:47;0.40;;;0.40;;
64682;SDS011;51107;47.652;19.016;2022-10-19T12:24:20;0.55;;;0.37;;
64682;SDS011;51107;47.652;19.016;2022-10-19T12:29:31;0.73;;;0.43;;
64682;SDS011;51107;47.652;19.016;2022-10-19T12:32:03;0.82;;;0.57;;
64682;SDS011;51107;47.652;19.016;2022-10-19T12:37:38;3.83;;;0.50;;
64682;SDS011;51107;47.652;19.016;2022-10-19T12:40:18;0.40;;;0.35;;
64682;SDS011;51107;47.652;19.016;2022-10-19T12:42:58;0.65;;;0.43;;
64682;SDS011;51107;47.652;19.016;2022-10-19T12:45:37;0.55;;;0.45;;
64682;SDS011;51107;47.652;19.016;2022-10-19T12:48:15;0.60;;;0.50;;
64682;SDS011;51107;47.652;19.016;2022-10-19T12:53:23;0.40;;;0.40;;
64682;SDS011;51107;47.652;19.016;2022-10-19T12:58:56;0.85;;;0.70;;
64682;SDS011;51107;47.652;19.016;2022-10-19T13:01:39;0.95;;;0.70;;
64682;SDS011;51107;47.652;19.016;2022-10-19T13:04:12;0.90;;;0.55;;
64682;SDS011;51107;47.652;19.016;2022-10-19T13:06:44;0.52;;;0.52;;
64682;SDS011;51107;47.652;19.016;2022-10-19T13:12:39;0.55;;;0.55;;
64682;SDS011;51107;47.652;19.016;2022-10-19T13:25:37;0.88;;;0.50;;
64682;SDS011;51107;47.652;19.016;2022-10-19T13:36:11;2.50;;;0.98;;
64682;SDS011;51107;47.652;19.016;2022-10-19T13:38:42;1.95;;;1.12;;
64682;SDS011;51107;47.652;19.016;2022-10-19T13:46:51;0.60;;;0.60;;
64682;SDS011;51107;47.652;19.016;2022-10-19T14:00:35;1.10;;;0.77;;
64682;SDS011;51107;47.652;19.016;2022-10-19T14:14:51;2.42;;;1.00;;
64682;SDS011;51107;47.652;19.016;2022-10-19T14:17:23;1.05;;;0.70;;
64682;SDS011;51107;47.652;19.016;2022-10-19T14:19:56;1.35;;;0.88;;
64682;SDS011;51107;47.652;19.016;2022-10-19T14:22:31;1.10;;;0.75;;
64682;SDS011;51107;47.652;19.016;2022-10-19T14:27:29;1.40;;;0.80;;
64682;SDS011;51107;47.652;19.016;2022-10-19T14:30:02;1.35;;;0.80;;
64682;SDS011;51107;47.652;19.016;2022-10-19T14:32:31;0.95;;;0.57;;
64682;SDS011;51107;47.652;19.016;2022-10-19T14:35:05;2.60;;;0.70;;
64682;SDS011;51107;47.652;19.016;2022-10-19T14:37:49;0.80;;;0.73;;
64682;SDS011;51107;47.652;19.016;2022-10-19T14:40:31;2.37;;;0.90;;
64682;SDS011;51107;47.652;19.016;2022-10-19T14:43:24;0.85;;;0.75;;
64682;SDS011;51107;47.652;19.016;2022-10-19T14:48:32;1.10;;;0.62;;
64682;SDS011;51107;47.652;19.016;2022-10-19T14:51:02;1.50;;;0.98;;
64682;SDS011;51107;47.652;19.016;2022-10-19T14:53:41;1.50;;;0.70;;
64682;SDS011;51107;47.652;19.016;2022-10-19T14:56:29;0.93;;;0.70;;
64682;SDS011;51107;47.652;19.016;2022-10-19T15:05:01;1.73;;;0.82;;
64682;SDS011;51107;47.652;19.016;2022-10-19T15:07:35;1.35;;;0.73;;
64682;SDS011;51107;47.652;19.016;2022-10-19T15:12:46;1.33;;;1.02;;
64682;SDS011;51107;47.652;19.016;2022-10-19T15:17:49;2.08;;;1.00;;
64682;SDS011;51107;47.652;19.016;2022-10-19T15:20:28;1.50;;;1.02;;
64682;SDS011;51107;47.652;19.016;2022-10-19T15:25:58;1.00;;;0.90;;
64682;SDS011;51107;47.652;19.016;2022-10-19T15:33:53;7.80;;;1.35;;
64682;SDS011;51107;47.652;19.016;2022-10-19T15:36:23;3.90;;;1.10;;
64682;SDS011;51107;47.652;19.016;2022-10-19T15:41:44;1.33;;;0.82;;
64682;SDS011;51107;47.652;19.016;2022-10-19T15:44:32;2.78;;;1.08;;
64682;SDS011;51107;47.652;19.016;2022-10-19T15:52:13;0.82;;;0.73;;
64682;SDS011;51107;47.652;19.016;2022-10-19T15:54:46;2.67;;;1.55;;
64682;SDS011;51107;47.652;19.016;2022-10-19T15:57:29;3.62;;;1.90;;
64682;SDS011;51107;47.652;19.016;2022-10-19T16:02:39;1.48;;;1.05;;
64682;SDS011;51107;47.652;19.016;2022-10-19T16:05:08;2.25;;;1.23;;
64682;SDS011;51107;47.652;19.016;2022-10-19T16:07:37;1.00;;;0.82;;
64682;SDS011;51107;47.652;19.016;2022-10-19T16:10:12;1.83;;;1.23;;
64682;SDS011;51107;47.652;19.016;2022-10-19T16:12:44;4.80;;;1.40;;
64682;SDS011;51107;47.652;19.016;2022-10-19T16:15:13;2.33;;;1.27;;
64682;SDS011;51107;47.652;19.016;2022-10-19T16:17:51;1.87;;;0.98;;
64682;SDS011;51107;47.652;19.016;2022-10-19T16:20:22;1.62;;;0.80;;
64682;SDS011;51107;47.652;19.016;2022-10-19T16:22:52;1.20;;;0.60;;
64682;SDS011;51107;47.652;19.016;2022-10-19T16:25:21;1.10;;;0.80;;
64682;SDS011;51107;47.652;19.016;2022-10-19T16:27:49;1.17;;;0.68;;
64682;SDS011;51107;47.652;19.016;2022-10-19T16:30:18;1.15;;;0.75;;
64682;SDS011;51107;47.652;19.016;2022-10-19T16:32:47;1.45;;;0.95;;
64682;SDS011;51107;47.652;19.016;2022-10-19T16:35:16;1.42;;;0.80;;
64682;SDS011;51107;47.652;19.016;2022-10-19T16:37:44;1.55;;;0.95;;
64682;SDS011;51107;47.652;19.016;2022-10-19T16:40:14;1.73;;;0.70;;
64682;SDS011;51107;47.652;19.016;2022-10-19T16:42:42;3.15;;;1.25;;
64682;SDS011;51107;47.652;19.016;2022-10-19T16:45:11;13.57;;;1.00;;
64682;SDS011;51107;47.652;19.016;2022-10-19T16:47:39;1.40;;;1.00;;
64682;SDS011;51107;47.652;19.016;2022-10-19T16:50:11;1.65;;;1.08;;
64682;SDS011;51107;47.652;19.016;2022-10-19T16:52:40;1.35;;;0.70;;
64682;SDS011;51107;47.652;19.016;2022-10-19T16:55:08;2.92;;;1.37;;
64682;SDS011;51107;47.652;19.016;2022-10-19T16:57:37;1.23;;;0.80;;
64682;SDS011;51107;47.652;19.016;2022-10-19T17:00:06;1.67;;;0.57;;
64682;SDS011;51107;47.652;19.016;2022-10-19T17:02:37;1.10;;;0.77;;
64682;SDS011;51107;47.652;19.016;2022-10-19T17:05:10;2.37;;;1.02;;
64682;SDS011;51107;47.652;19.016;2022-10-19T17:07:39;1.45;;;0.90;;
64682;SDS011;51107;47.652;19.016;2022-10-19T17:10:08;4.20;;;0.93;;
64682;SDS011;51107;47.652;19.016;2022-10-19T17:12:40;0.70;;;0.65;;
64682;SDS011;51107;47.652;19.016;2022-10-19T17:15:09;3.97;;;0.70;;
64682;SDS011;51107;47.652;19.016;2022-10-19T17:18:01;1.75;;;0.93;;
64682;SDS011;51107;47.652;19.016;2022-10-19T17:20:31;2.05;;;1.20;;
64682;SDS011;51107;47.652;19.016;2022-10-19T17:23:00;1.05;;;0.85;;
64682;SDS011;51107;47.652;19.016;2022-10-19T17:25:28;0.62;;;0.57;;
64682;SDS011;51107;47.652;19.016;2022-10-19T17:27:57;2.58;;;1.12;;
64682;SDS011;51107;47.652;19.016;2022-10-19T17:30:27;0.68;;;0.68;;
64682;SDS011;51107;47.652;19.016;2022-10-19T17:32:56;1.02;;;0.80;;
64682;SDS011;51107;47.652;19.016;2022-10-19T17:35:25;1.08;;;0.90;;
64682;SDS011;51107;47.652;19.016;2022-10-19T17:37:53;1.33;;;0.73;;
64682;SDS011;51107;47.652;19.016;2022-10-19T17:40:22;2.67;;;0.90;;
64682;SDS011;51107;47.652;19.016;2022-10-19T17:42:50;1.62;;;0.90;;
64682;SDS011;51107;47.652;19.016;2022-10-19T17:45:19;1.30;;;0.80;;
64682;SDS011;51107;47.652;19.016;2022-10-19T17:47:47;1.42;;;1.05;;
64682;SDS011;51107;47.652;19.016;2022-10-19T17:50:16;2.03;;;1.00;;
64682;SDS011;51107;47.652;19.016;2022-10-19T17:52:45;1.23;;;0.82;;
64682;SDS011;51107;47.652;19.016;2022-10-19T17:55:13;0.85;;;0.60;;
64682;SDS011;51107;47.652;19.016;2022-10-19T17:57:42;1.00;;;0.73;;
64682;SDS011;51107;47.652;19.016;2022-10-19T18:00:11;1.52;;;0.90;;
64682;SDS011;51107;47.652;19.016;2022-10-19T18:02:42;1.90;;;1.00;;
64682;SDS011;51107;47.652;19.016;2022-10-19T18:05:11;1.92;;;0.93;;
64682;SDS011;51107;47.652;19.016;2022-10-19T18:07:41;1.35;;;1.12;;
64682;SDS011;51107;47.652;19.016;2022-10-19T18:10:09;1.80;;;1.42;;
64682;SDS011;51107;47.652;19.016;2022-10-19T18:12:38;3.92;;;1.70;;